Hitachimaru — JD2063 — position and weather

sailwx.info

Track history (hours):
 
Tides and Currents Weather Stations Pressure Air Temp Water Temp Dewpoint Dewpoint Depression Visibility Wind Speed Wind Dir Waves Ship Positions

Hitachimaru

Last reported at 2017-Dec-18 13:13 UTC. Time now 2017-Dec-18 20:14 UTC.
Position N 34°25' E 134°23'.

Length 83 m; draft 4.7 m.

Type: Cargo ship. MMSI: 431301756.

Date/timePositionNaut miles runAvg speedWind from/ knotsBaromVisibWave heightAir tempDewpointWater temp
2017-Dec-18 13:13N 34°25' E 134°23'511.6
2017-Dec-18 12:49N 34°27' E 134°28'411.8
2017-Dec-18 12:30N 34°29' E 134°32'611.7
2017-Dec-18 12:00N 34°31' E 134°39'611.5
2017-Dec-18 11:30N 34°33' E 134°45'612.9
2017-Dec-18 11:00N 34°35' E 134°53'612.6
2017-Dec-18 10:30N 34°37' E 134°60'611.2
2017-Dec-18 10:00N 34°35' E 135°05'612.6
2017-Dec-18 09:30N 34°29' E 135°03'612.0
2017-Dec-18 09:00N 34°23' E 135°01'611.6
2017-Dec-18 08:30N 34°17' E 134°59'510.2
2017-Dec-18 08:00N 34°15' E 135°05'2 3.9
2017-Dec-18 07:30N 34°15' E 135°07'0 0.1
2017-Dec-18 07:00N 34°15' E 135°07'0 0.1
2017-Dec-18 06:28N 34°15' E 135°07'0 0.1
2017-Dec-18 05:58N 34°15' E 135°07'0 0.1
2017-Dec-18 05:28N 34°15' E 135°07'0 0.0
2017-Dec-18 04:58N 34°15' E 135°07'0 0.0
2017-Dec-18 04:28N 34°15' E 135°07'0 0.0
2017-Dec-18 03:55N 34°15' E 135°07'0 0.1
2017-Dec-18 03:28N 34°15' E 135°07'0 0.1
2017-Dec-18 02:58N 34°15' E 135°07'0 0.0
2017-Dec-18 02:28N 34°15' E 135°07'0 0.0
2017-Dec-18 01:58N 34°15' E 135°07'0 0.0
2017-Dec-18 01:22N 34°15' E 135°07'0 0.0
2017-Dec-18 00:58N 34°15' E 135°07'0 0.0
2017-Dec-18 00:28N 34°15' E 135°07'0 0.0
2017-Dec-17 23:58N 34°15' E 135°07'0 0.0
2017-Dec-17 23:28N 34°15' E 135°07'0 0.0
2017-Dec-17 22:58N 34°15' E 135°07'0 0.0
2017-Dec-17 22:28N 34°15' E 135°07'0 0.0
2017-Dec-17 21:58N 34°15' E 135°07'0 0.0
2017-Dec-17 21:28N 34°15' E 135°07'0 0.0
2017-Dec-17 20:58N 34°15' E 135°07'0 0.0
2017-Dec-17 20:28N 34°15' E 135°07'0 0.0
2017-Dec-17 19:58N 34°15' E 135°07'0 0.0
2017-Dec-17 19:28N 34°15' E 135°07'0 0.0
2017-Dec-17 18:58N 34°15' E 135°07'0 0.0
2017-Dec-17 18:28N 34°15' E 135°07'0 0.0
2017-Dec-17 17:58N 34°15' E 135°07'0 0.0
2017-Dec-17 17:28N 34°15' E 135°07'0 0.0
2017-Dec-17 16:58N 34°15' E 135°07'0 0.1
2017-Dec-17 16:31N 34°15' E 135°07'4 7.8
2017-Dec-17 16:00N 34°16' E 135°03'713.7
2017-Dec-17 15:31N 34°23' E 135°04'713.7
2017-Dec-17 15:00N 34°30' E 135°04'713.1
2017-Dec-17 14:30N 34°36' E 135°02'713.1
2017-Dec-17 14:00N 34°37' E 134°54'713.9
2017-Dec-17 13:30N 34°41' E 134°47'713.1
2017-Dec-17 13:00N 34°44' E 134°40'3 0.3
2017-Dec-17 01:27N 34°47' E 134°38'2 5.1
2017-Dec-17 00:58N 34°44' E 134°38'0 0.0
2017-Dec-16 19:26N 34°44' E 134°38'0 0.0
2017-Dec-16 18:49N 34°44' E 134°38'5 7.7
2017-Dec-16 18:09N 34°42' E 134°43'210.4
2017-Dec-16 17:59N 34°41' E 134°45'510.1
2017-Dec-16 17:30N 34°39' E 134°50'4 8.8
2017-Dec-16 17:01N 34°37' E 134°55'5 9.2
2017-Dec-16 16:30N 34°37' E 135°01'3 6.6
2017-Dec-16 16:00N 34°36' E 135°04'4 8.3
2017-Dec-16 15:31N 34°31' E 135°04'510.8
2017-Dec-16 15:01N 34°26' E 135°03'510.4
2017-Dec-16 14:30N 34°21' E 135°01'5 9.9
2017-Dec-16 14:00N 34°17' E 134°59'5 9.9
2017-Dec-16 13:31N 34°12' E 135°00'510.1
2017-Dec-16 13:01N 34°07' E 135°00'5 9.8
2017-Dec-16 12:31N 34°02' E 135°00'5 9.6
2017-Dec-16 12:00N 33°57' E 135°01'101 7.5
2017-Dec-15 22:36N 34°39' E 136°52'112.1
2017-Dec-15 22:29N 34°40' E 136°51'612.1
2017-Dec-15 22:00N 34°45' E 136°47'611.6
2017-Dec-15 21:30N 34°50' E 136°46'611.9
2017-Dec-15 21:01N 34°56' E 136°46'611.8
2017-Dec-15 20:31N 35°01' E 136°50'3 5.5
2017-Dec-15 20:01N 35°03' E 136°53'0 0.0
2017-Dec-15 19:30N 35°03' E 136°53'0 0.0
2017-Dec-15 19:00N 35°03' E 136°53'0 0.0
2017-Dec-15 18:27N 35°03' E 136°53'0 0.0
2017-Dec-15 18:00N 35°03' E 136°53'0 0.0
2017-Dec-15 17:30N 35°03' E 136°53'0 0.0
2017-Dec-15 17:00N 35°03' E 136°53'0 0.0
2017-Dec-15 16:30N 35°03' E 136°53'0 0.0
2017-Dec-15 16:00N 35°03' E 136°53'0 0.0
2017-Dec-15 15:30N 35°03' E 136°53'0 0.0
2017-Dec-15 15:00N 35°03' E 136°53'0 0.0
2017-Dec-15 14:30N 35°03' E 136°53'0 0.0
2017-Dec-15 14:00N 35°03' E 136°53'0 0.0
2017-Dec-15 13:30N 35°03' E 136°53'0 0.0
2017-Dec-15 13:00N 35°03' E 136°53'0 0.0
2017-Dec-15 12:30N 35°03' E 136°53'0 0.0
2017-Dec-15 12:00N 35°03' E 136°53'0 0.0
2017-Dec-15 11:30N 35°03' E 136°53'1 2.9
2017-Dec-15 11:00N 35°02' E 136°51'2 3.3
2017-Dec-15 10:30N 35°03' E 136°50'0 0.0
2017-Dec-15 09:56N 35°03' E 136°50'0 0.0
2017-Dec-15 09:29N 35°03' E 136°50'0 0.0
2017-Dec-15 08:59N 35°03' E 136°50'0 0.0
2017-Dec-15 08:26N 35°03' E 136°50'0 0.0
2017-Dec-15 07:59N 35°03' E 136°50'0 0.0
2017-Dec-15 07:29N 35°03' E 136°50'0 0.0
2017-Dec-15 06:59N 35°03' E 136°50'0 0.0
2017-Dec-15 06:26N 35°03' E 136°50'0 0.0
2017-Dec-15 06:00N 35°03' E 136°50'0 0.5
2017-Dec-15 05:30N 35°03' E 136°50'1 2.9
2017-Dec-15 05:00N 35°02' E 136°51'4 7.5
2017-Dec-15 04:31N 34°59' E 136°47'0 0.2
2017-Dec-15 03:59N 34°59' E 136°47'0 0.0
2017-Dec-15 02:28N 34°59' E 136°47'0 0.0
2017-Dec-15 00:58N 34°59' E 136°47'0 0.0
2017-Dec-15 00:28N 34°59' E 136°47'32 5.1
2017-Dec-14 18:09N 34°33' E 137°10'211.3
2017-Dec-14 18:00N 34°33' E 137°12'911.6
2017-Dec-14 17:15N 34°33' E 137°23'4311.3
2017-Dec-14 13:24N 34°33' E 138°15'1311.4
2017-Dec-14 12:16N 34°34' E 138°31'311.3
2017-Dec-14 11:58N 34°35' E 138°35'511.3
2017-Dec-14 11:30N 34°35' E 138°41'610.5
2017-Dec-14 10:59N 34°35' E 138°48'510.7
2017-Dec-14 10:30N 34°36' E 138°54'510.4
2017-Dec-14 10:00N 34°38' E 138°60'510.9
2017-Dec-14 09:30N 34°41' E 139°05'5 9.7
2017-Dec-14 08:59N 34°44' E 139°11'5 9.6
2017-Dec-14 08:30N 34°46' E 139°15'610.5
2017-Dec-14 07:57N 34°49' E 139°21'612.3
2017-Dec-14 07:27N 34°50' E 139°29'3211.1
2017-Dec-14 04:36N 34°58' E 140°06'  
2017-Dec-09 23:15N 34°58' E 140°07'1713.0
2017-Dec-09 21:58N 34°53' E 139°48'612.5
2017-Dec-09 21:30N 34°58' E 139°44'612.2
2017-Dec-09 21:00N 35°04' E 139°44'713.1
2017-Dec-09 20:30N 35°10' E 139°46'612.6
2017-Dec-09 20:00N 35°16' E 139°46'612.2
2017-Dec-09 19:31N 35°22' E 139°42'611.9
2017-Dec-09 19:01N 35°27' E 139°47'612.7
2017-Dec-09 18:31N 35°31' E 139°52'612.1
2017-Dec-09 18:00N 35°36' E 139°57'0 0.3
2017-Dec-09 16:36N 35°36' E 139°57'0 0.0
2017-Dec-09 15:15N 35°36' E 139°57'0 0.0
2017-Dec-09 14:51N 35°36' E 139°57'0 0.0
2017-Dec-09 14:21N 35°36' E 139°57'0 0.2
2017-Dec-09 13:57N 35°36' E 139°57'0 0.0
2017-Dec-09 13:30N 35°36' E 139°57'0 0.0
2017-Dec-09 12:57N 35°36' E 139°57'0 0.0
2017-Dec-09 12:27N 35°36' E 139°57'0 0.0
2017-Dec-09 11:57N 35°36' E 139°57'0 0.0
2017-Dec-09 11:30N 35°36' E 139°57'0 0.0
2017-Dec-09 10:15N 35°36' E 139°57'0 0.0
2017-Dec-09 09:57N 35°36' E 139°57'0 0.0
2017-Dec-09 09:27N 35°36' E 139°57'0 0.0
2017-Dec-09 08:48N 35°36' E 139°57'0 0.0
2017-Dec-09 08:27N 35°36' E 139°57'0 0.1
2017-Dec-09 07:57N 35°36' E 139°57'0 0.0
2017-Dec-09 07:27N 35°36' E 139°57'0 0.0
2017-Dec-09 06:57N 35°36' E 139°57'0 0.0
2017-Dec-09 06:21N 35°36' E 139°57'0 0.0
2017-Dec-09 05:57N 35°36' E 139°57'0 0.0
2017-Dec-09 05:21N 35°36' E 139°57'0 0.0
2017-Dec-09 04:57N 35°36' E 139°57'0 0.0
2017-Dec-09 04:27N 35°36' E 139°57'0 0.0
2017-Dec-09 03:51N 35°36' E 139°57'0 0.0
2017-Dec-08 22:42N 35°36' E 139°57'0 0.0
2017-Dec-08 22:15N 35°36' E 139°57'0 0.0
2017-Dec-08 21:48N 35°36' E 139°57'2 5.9
2017-Dec-08 21:28N 35°38' E 139°59'  
Track history (hours):
 
Tides and Currents Weather Stations Pressure Air Temp Water Temp Dewpoint Dewpoint Depression Visibility Wind Speed Wind Dir Waves Ship Positions

Hitachimaru

Last reported at 2017-Dec-18 13:13 UTC. Time now 2017-Dec-18 20:14 UTC.
Position N 34°25' E 134°23'.

Length 83 m; draft 4.7 m.

Type: Cargo ship. MMSI: 431301756.

Date/timePositionNaut miles runAvg speedWind from/ knotsBaromVisibWave heightAir tempDewpointWater temp
2017-Dec-18 13:13N 34°25' E 134°23'511.6
2017-Dec-18 12:49N 34°27' E 134°28'411.8
2017-Dec-18 12:30N 34°29' E 134°32'611.7
2017-Dec-18 12:00N 34°31' E 134°39'611.5
2017-Dec-18 11:30N 34°33' E 134°45'612.9
2017-Dec-18 11:00N 34°35' E 134°53'612.6
2017-Dec-18 10:30N 34°37' E 134°60'611.2
2017-Dec-18 10:00N 34°35' E 135°05'612.6
2017-Dec-18 09:30N 34°29' E 135°03'612.0
2017-Dec-18 09:00N 34°23' E 135°01'611.6
2017-Dec-18 08:30N 34°17' E 134°59'510.2
2017-Dec-18 08:00N 34°15' E 135°05'2 3.9
2017-Dec-18 07:30N 34°15' E 135°07'0 0.1
2017-Dec-18 07:00N 34°15' E 135°07'0 0.1
2017-Dec-18 06:28N 34°15' E 135°07'0 0.1
2017-Dec-18 05:58N 34°15' E 135°07'0 0.1
2017-Dec-18 05:28N 34°15' E 135°07'0 0.0
2017-Dec-18 04:58N 34°15' E 135°07'0 0.0
2017-Dec-18 04:28N 34°15' E 135°07'0 0.0
2017-Dec-18 03:55N 34°15' E 135°07'0 0.1
2017-Dec-18 03:28N 34°15' E 135°07'0 0.1
2017-Dec-18 02:58N 34°15' E 135°07'0 0.0
2017-Dec-18 02:28N 34°15' E 135°07'0 0.0
2017-Dec-18 01:58N 34°15' E 135°07'0 0.0
2017-Dec-18 01:22N 34°15' E 135°07'0 0.0
2017-Dec-18 00:58N 34°15' E 135°07'0 0.0
2017-Dec-18 00:28N 34°15' E 135°07'0 0.0
2017-Dec-17 23:58N 34°15' E 135°07'0 0.0
2017-Dec-17 23:28N 34°15' E 135°07'0 0.0
2017-Dec-17 22:58N 34°15' E 135°07'0 0.0
2017-Dec-17 22:28N 34°15' E 135°07'0 0.0
2017-Dec-17 21:58N 34°15' E 135°07'0 0.0
2017-Dec-17 21:28N 34°15' E 135°07'0 0.0
2017-Dec-17 20:58N 34°15' E 135°07'0 0.0
2017-Dec-17 20:28N 34°15' E 135°07'0 0.0
2017-Dec-17 19:58N 34°15' E 135°07'0 0.0
2017-Dec-17 19:28N 34°15' E 135°07'0 0.0
2017-Dec-17 18:58N 34°15' E 135°07'0 0.0
2017-Dec-17 18:28N 34°15' E 135°07'0 0.0
2017-Dec-17 17:58N 34°15' E 135°07'0 0.0
2017-Dec-17 17:28N 34°15' E 135°07'0 0.0
2017-Dec-17 16:58N 34°15' E 135°07'0 0.1
2017-Dec-17 16:31N 34°15' E 135°07'4 7.8
2017-Dec-17 16:00N 34°16' E 135°03'713.7
2017-Dec-17 15:31N 34°23' E 135°04'713.7
2017-Dec-17 15:00N 34°30' E 135°04'713.1
2017-Dec-17 14:30N 34°36' E 135°02'713.1
2017-Dec-17 14:00N 34°37' E 134°54'713.9
2017-Dec-17 13:30N 34°41' E 134°47'713.1
2017-Dec-17 13:00N 34°44' E 134°40'3 0.3
2017-Dec-17 01:27N 34°47' E 134°38'2 5.1
2017-Dec-17 00:58N 34°44' E 134°38'0 0.0
2017-Dec-16 19:26N 34°44' E 134°38'0 0.0
2017-Dec-16 18:49N 34°44' E 134°38'5 7.7
2017-Dec-16 18:09N 34°42' E 134°43'210.4
2017-Dec-16 17:59N 34°41' E 134°45'510.1
2017-Dec-16 17:30N 34°39' E 134°50'4 8.8
2017-Dec-16 17:01N 34°37' E 134°55'5 9.2
2017-Dec-16 16:30N 34°37' E 135°01'3 6.6
2017-Dec-16 16:00N 34°36' E 135°04'4 8.3
2017-Dec-16 15:31N 34°31' E 135°04'510.8
2017-Dec-16 15:01N 34°26' E 135°03'510.4
2017-Dec-16 14:30N 34°21' E 135°01'5 9.9
2017-Dec-16 14:00N 34°17' E 134°59'5 9.9
2017-Dec-16 13:31N 34°12' E 135°00'510.1
2017-Dec-16 13:01N 34°07' E 135°00'5 9.8
2017-Dec-16 12:31N 34°02' E 135°00'5 9.6
2017-Dec-16 12:00N 33°57' E 135°01'101 7.5
2017-Dec-15 22:36N 34°39' E 136°52'112.1
2017-Dec-15 22:29N 34°40' E 136°51'612.1
2017-Dec-15 22:00N 34°45' E 136°47'611.6
2017-Dec-15 21:30N 34°50' E 136°46'611.9
2017-Dec-15 21:01N 34°56' E 136°46'611.8
2017-Dec-15 20:31N 35°01' E 136°50'3 5.5
2017-Dec-15 20:01N 35°03' E 136°53'0 0.0
2017-Dec-15 19:30N 35°03' E 136°53'0 0.0
2017-Dec-15 19:00N 35°03' E 136°53'0 0.0
2017-Dec-15 18:27N 35°03' E 136°53'0 0.0
2017-Dec-15 18:00N 35°03' E 136°53'0 0.0
2017-Dec-15 17:30N 35°03' E 136°53'0 0.0
2017-Dec-15 17:00N 35°03' E 136°53'0 0.0
2017-Dec-15 16:30N 35°03' E 136°53'0 0.0
2017-Dec-15 16:00N 35°03' E 136°53'0 0.0
2017-Dec-15 15:30N 35°03' E 136°53'0 0.0
2017-Dec-15 15:00N 35°03' E 136°53'0 0.0
2017-Dec-15 14:30N 35°03' E 136°53'0 0.0
2017-Dec-15 14:00N 35°03' E 136°53'0 0.0
2017-Dec-15 13:30N 35°03' E 136°53'0 0.0
2017-Dec-15 13:00N 35°03' E 136°53'0 0.0
2017-Dec-15 12:30N 35°03' E 136°53'0 0.0
2017-Dec-15 12:00N 35°03' E 136°53'0 0.0
2017-Dec-15 11:30N 35°03' E 136°53'1 2.9
2017-Dec-15 11:00N 35°02' E 136°51'2 3.3
2017-Dec-15 10:30N 35°03' E 136°50'0 0.0
2017-Dec-15 09:56N 35°03' E 136°50'0 0.0
2017-Dec-15 09:29N 35°03' E 136°50'0 0.0
2017-Dec-15 08:59N 35°03' E 136°50'0 0.0
2017-Dec-15 08:26N 35°03' E 136°50'0 0.0
2017-Dec-15 07:59N 35°03' E 136°50'0 0.0
2017-Dec-15 07:29N 35°03' E 136°50'0 0.0
2017-Dec-15 06:59N 35°03' E 136°50'0 0.0
2017-Dec-15 06:26N 35°03' E 136°50'0 0.0
2017-Dec-15 06:00N 35°03' E 136°50'0 0.5
2017-Dec-15 05:30N 35°03' E 136°50'1 2.9
2017-Dec-15 05:00N 35°02' E 136°51'4 7.5
2017-Dec-15 04:31N 34°59' E 136°47'0 0.2
2017-Dec-15 03:59N 34°59' E 136°47'0 0.0
2017-Dec-15 02:28N 34°59' E 136°47'0 0.0
2017-Dec-15 00:58N 34°59' E 136°47'0 0.0
2017-Dec-15 00:28N 34°59' E 136°47'32 5.1
2017-Dec-14 18:09N 34°33' E 137°10'211.3
2017-Dec-14 18:00N 34°33' E 137°12'911.6
2017-Dec-14 17:15N 34°33' E 137°23'4311.3
2017-Dec-14 13:24N 34°33' E 138°15'1311.4
2017-Dec-14 12:16N 34°34' E 138°31'311.3
2017-Dec-14 11:58N 34°35' E 138°35'511.3
2017-Dec-14 11:30N 34°35' E 138°41'610.5
2017-Dec-14 10:59N 34°35' E 138°48'510.7
2017-Dec-14 10:30N 34°36' E 138°54'510.4
2017-Dec-14 10:00N 34°38' E 138°60'510.9
2017-Dec-14 09:30N 34°41' E 139°05'5 9.7
2017-Dec-14 08:59N 34°44' E 139°11'5 9.6
2017-Dec-14 08:30N 34°46' E 139°15'610.5
2017-Dec-14 07:57N 34°49' E 139°21'612.3
2017-Dec-14 07:27N 34°50' E 139°29'3211.1
2017-Dec-14 04:36N 34°58' E 140°06'  
2017-Dec-09 23:15N 34°58' E 140°07'1713.0
2017-Dec-09 21:58N 34°53' E 139°48'612.5
2017-Dec-09 21:30N 34°58' E 139°44'612.2
2017-Dec-09 21:00N 35°04' E 139°44'713.1
2017-Dec-09 20:30N 35°10' E 139°46'612.6
2017-Dec-09 20:00N 35°16' E 139°46'612.2
2017-Dec-09 19:31N 35°22' E 139°42'611.9
2017-Dec-09 19:01N 35°27' E 139°47'612.7
2017-Dec-09 18:31N 35°31' E 139°52'612.1
2017-Dec-09 18:00N 35°36' E 139°57'0 0.3
2017-Dec-09 16:36N 35°36' E 139°57'0 0.0
2017-Dec-09 15:15N 35°36' E 139°57'0 0.0
2017-Dec-09 14:51N 35°36' E 139°57'0 0.0
2017-Dec-09 14:21N 35°36' E 139°57'0 0.2
2017-Dec-09 13:57N 35°36' E 139°57'0 0.0
2017-Dec-09 13:30N 35°36' E 139°57'0 0.0
2017-Dec-09 12:57N 35°36' E 139°57'0 0.0
2017-Dec-09 12:27N 35°36' E 139°57'0 0.0
2017-Dec-09 11:57N 35°36' E 139°57'0 0.0
2017-Dec-09 11:30N 35°36' E 139°57'0 0.0
2017-Dec-09 10:15N 35°36' E 139°57'0 0.0
2017-Dec-09 09:57N 35°36' E 139°57'0 0.0
2017-Dec-09 09:27N 35°36' E 139°57'0 0.0
2017-Dec-09 08:48N 35°36' E 139°57'0 0.0
2017-Dec-09 08:27N 35°36' E 139°57'0 0.1
2017-Dec-09 07:57N 35°36' E 139°57'0 0.0
2017-Dec-09 07:27N 35°36' E 139°57'0 0.0
2017-Dec-09 06:57N 35°36' E 139°57'0 0.0
2017-Dec-09 06:21N 35°36' E 139°57'0 0.0
2017-Dec-09 05:57N 35°36' E 139°57'0 0.0
2017-Dec-09 05:21N 35°36' E 139°57'0 0.0
2017-Dec-09 04:57N 35°36' E 139°57'0 0.0
2017-Dec-09 04:27N 35°36' E 139°57'0 0.0
2017-Dec-09 03:51N 35°36' E 139°57'0 0.0
2017-Dec-08 22:42N 35°36' E 139°57'0 0.0
2017-Dec-08 22:15N 35°36' E 139°57'0 0.0
2017-Dec-08 21:48N 35°36' E 139°57'2 5.9
2017-Dec-08 21:28N 35°38' E 139°59'  

Dump ship's entire track history